Denver, Iowa
Current Conditions -  °F | °C
As of 3:05 PM on Saturday 20 Dec 2014 (Local Time) from KALO Reporting Station
Haze Haze  
Wind Chill: -4°   Ceiling: 900
Heat Index:   Visibility: 5mi
Dew Point: -1°   Wind: 7mph
Humidity: 96%   Direction: 170°S
Pressure: 30.15"   Gusts: NA
Location:  42.67°N, 92.34°W
Report Text: KALO 202105Z 17006KT 5SM BR BKN009 OVC017 00/M01 A3015 RMK AO2 CIG 007V011 T00001006
Loading
Personal Weather Stations






























Interactive Weather Map New forecast layout! Learn more

10-Day Weather Forecast

Advertisements
Track Severe Weather on mobile